Messwerte Klawock

Temperatur

Temperatur
°C
1594634400 2.00 2.00
1594638000 3.00 3.00 12
1594641600 4.00 4.00
1594645200 5.00 5.00 12
1594648800 6.00 6.00 12
1594652400 7.00 7.00 12
1594656000 8.00 8.00 12
1594659600 9.00 9.00 13
1594663200 10.00 10.00
1594666800 11.00 11.00 14
1594670400 12.00 12.00
1594674000 13.00 13.00 16
1594677600 14.00 14.00 16
1594681200 15.00 15.00 16
1594684800 16.00 16.00 14
1594688400 17.00 17.00 14
1594692000 18.00 18.00 14
1594695600 19.00 19.00
1594699200 20.00 20.00 13
1594702800 21.00 21.00 13
1594706400 22.00 22.00 12
1594710000 23.00 23.00 12
1594713600 0.00 0.00 13
1594717200 1.00 1.00

Wir danken unserem Partner:

Aktuellste Messwerte

Wettercharakter
Wetter: trüb und nass
Temperatur
12 °C
Feuchtigkeit
94 %
Wind
5 km/hWindrichtung: Süd
Luftdruck
1016 hPa
Messzeit: 14. Juli 2020, 2.00Datenquelle: METAR

Weitere Messstationen in der Nähe

Messstation Temperatur Entfernung
Ketchikan 13 °C 91 km
Metlakatla 14 °C 107 km
Wrangell 13 °C 109 km
Petersburg 13 °C 138 km
Langara Island 12 °C 148 km
Kake, Kake Airport 12 °C 164 km
Rose Spit 14 °C 183 km

Wind

Windrichtung Böen Mittelwind
° km/h km/h
1594634400 2.00 1.00 - 2.00
1594638000 3.00 2.00 - 3.00 0
1594641600 4.00 3.00 - 4.00
1594645200 5.00 4.00 - 5.00 160° 10
1594648800 6.00 5.00 - 6.00 0
1594652400 7.00 6.00 - 7.00 0
1594656000 8.00 7.00 - 8.00 0
1594659600 9.00 8.00 - 9.00 0
1594663200 10.00 9.00 - 10.00
1594666800 11.00 10.00 - 11.00 0
1594670400 12.00 11.00 - 12.00
1594674000 13.00 12.00 - 13.00 0
1594677600 14.00 13.00 - 14.00 280° 5
1594681200 15.00 14.00 - 15.00 5
1594684800 16.00 15.00 - 16.00 240° 5
1594688400 17.00 16.00 - 17.00 0
1594692000 18.00 17.00 - 18.00 230° 5
1594695600 19.00 18.00 - 19.00
1594699200 20.00 19.00 - 20.00 0
1594702800 21.00 20.00 - 21.00 0
1594706400 22.00 21.00 - 22.00 0
1594710000 23.00 22.00 - 23.00 0
1594713600 0.00 23.00 - 0.00 5
1594717200 1.00 0.00 - 1.00

Ihre Wetterstation

Fehlt Ihre Wetterstation auf unserem Portal?

Schreiben Sie an network@meteonews.ch

Klima

Wann ist es am wärmsten? Wann regnet es am wenigsten? Unsere Klimadaten geben Auskunft.